KRIC/RIC METAR and TAF weather

Enter ICAO airport designator
Station Type Date Time Source
KRIC METAR 2022/11/30 10:54 UTC NOAA

KRIC 301054Z 16007KT 7SM -RA SCT026 BKN075 OVC090 09/08 A3005 RMK AO2 RAB41 SLP181 P0000 T00940078


Station Type Date Time Source
KRIC Decoded METAR 2022/11/30 10:54 UTC NOAA

RICHMOND INTERNATIONAL AIRPORT, VA, United States (KRIC) 37-31N 077-19W 50M
Nov 30, 2022 - 05:54 AM EST / 2022.11.30 1054 UTC
Wind: from the SSE (160 degrees) at 8 MPH (7 KT):0
Visibility: 7 mile(s):0
Sky conditions: overcast
Weather: light rain
Precipitation last hour: A trace
Temperature: 48.9 F (9.4 C)
Dew Point: 46.0 F (7.8 C)
Relative Humidity: 89%
Pressure (altimeter): 30.05 in. Hg (1017 hPa)
ob: KRIC 301054Z 16007KT 7SM -RA SCT026 BKN075 OVC090 09/08 A3005 RMK AO2 RAB41 SLP181 P0000 T00940078
cycle: 11

Station Type Date Time Source
KRIC TAF 2022/11/30 12:28 UTC NOAA

TAF KRIC 301125Z 3012/0112 17009KT 4SM -SHRA BR BKN020 OVC050
FM301300 18010G17KT 3SM SHRA BR OVC015
FM301600 20014G25KT P6SM VCSH OVC015 WS020/20045KT
FM301900 24012G21KT P6SM VCSH BKN025 WS020/20045KT
FM302200 30014G23KT P6SM SCT060
FM010200 31009KT P6SM SCT250

Example: see airport list